sensor_id;sensor_type;location;lat;lon;timestamp;temperature;humidity
56538;DHT22;42435;53.292;6.000;2024-02-21T00:01:50;10.30;84.40
56538;DHT22;42435;53.292;6.000;2024-02-21T00:04:22;10.20;84.30
56538;DHT22;42435;53.292;6.000;2024-02-21T00:07:08;10.20;84.50
56538;DHT22;42435;53.292;6.000;2024-02-21T00:09:38;10.20;84.60
56538;DHT22;42435;53.292;6.000;2024-02-21T00:12:33;10.20;84.70
56538;DHT22;42435;53.292;6.000;2024-02-21T00:15:03;10.20;84.80
56538;DHT22;42435;53.292;6.000;2024-02-21T00:17:34;10.20;84.80
56538;DHT22;42435;53.292;6.000;2024-02-21T00:20:18;10.10;85.00
56538;DHT22;42435;53.292;6.000;2024-02-21T00:23:32;10.20;85.00
56538;DHT22;42435;53.292;6.000;2024-02-21T00:26:17;10.10;85.10
56538;DHT22;42435;53.292;6.000;2024-02-21T00:28:53;10.10;85.10
56538;DHT22;42435;53.292;6.000;2024-02-21T00:31:23;10.20;85.10
56538;DHT22;42435;53.292;6.000;2024-02-21T00:33:50;10.10;85.10
56538;DHT22;42435;53.292;6.000;2024-02-21T00:36:34;10.10;85.20
56538;DHT22;42435;53.292;6.000;2024-02-21T00:39:05;10.10;85.20
56538;DHT22;42435;53.292;6.000;2024-02-21T00:41:37;10.10;85.30
56538;DHT22;42435;53.292;6.000;2024-02-21T00:44:23;10.10;85.30
56538;DHT22;42435;53.292;6.000;2024-02-21T00:47:06;10.10;85.40
56538;DHT22;42435;53.292;6.000;2024-02-21T00:49:35;10.10;85.30
56538;DHT22;42435;53.292;6.000;2024-02-21T00:52:08;10.10;85.30
56538;DHT22;42435;53.292;6.000;2024-02-21T00:54:38;10.10;85.30
56538;DHT22;42435;53.292;6.000;2024-02-21T00:57:28;10.10;85.40
56538;DHT22;42435;53.292;6.000;2024-02-21T00:59:55;10.10;85.30
56538;DHT22;42435;53.292;6.000;2024-02-21T01:02:44;10.10;85.40
56538;DHT22;42435;53.292;6.000;2024-02-21T01:05:31;10.10;85.40
56538;DHT22;42435;53.292;6.000;2024-02-21T01:08:20;10.10;85.50
56538;DHT22;42435;53.292;6.000;2024-02-21T01:10:49;10.10;85.40
56538;DHT22;42435;53.292;6.000;2024-02-21T01:13:23;10.00;85.50
56538;DHT22;42435;53.292;6.000;2024-02-21T01:15:56;10.10;85.60
56538;DHT22;42435;53.292;6.000;2024-02-21T01:18:28;10.10;85.70
56538;DHT22;42435;53.292;6.000;2024-02-21T01:21:07;10.00;85.70
56538;DHT22;42435;53.292;6.000;2024-02-21T01:23:37;10.10;85.80
56538;DHT22;42435;53.292;6.000;2024-02-21T01:26:17;10.00;85.80
56538;DHT22;42435;53.292;6.000;2024-02-21T01:28:46;10.00;85.80
56538;DHT22;42435;53.292;6.000;2024-02-21T01:31:27;10.10;85.90
56538;DHT22;42435;53.292;6.000;2024-02-21T01:33:56;10.00;85.90
56538;DHT22;42435;53.292;6.000;2024-02-21T01:36:24;10.10;86.00
56538;DHT22;42435;53.292;6.000;2024-02-21T01:38:58;10.00;86.00
56538;DHT22;42435;53.292;6.000;2024-02-21T01:41:31;10.00;86.10
56538;DHT22;42435;53.292;6.000;2024-02-21T01:43:59;10.00;86.10
56538;DHT22;42435;53.292;6.000;2024-02-21T01:46:25;10.00;86.10
56538;DHT22;42435;53.292;6.000;2024-02-21T01:49:03;10.00;86.10
56538;DHT22;42435;53.292;6.000;2024-02-21T01:51:33;10.10;86.20
56538;DHT22;42435;53.292;6.000;2024-02-21T01:53:59;10.10;86.20
56538;DHT22;42435;53.292;6.000;2024-02-21T01:56:29;10.00;86.20
56538;DHT22;42435;53.292;6.000;2024-02-21T01:58:59;10.10;86.20
56538;DHT22;42435;53.292;6.000;2024-02-21T02:01:29;10.10;86.20
56538;DHT22;42435;53.292;6.000;2024-02-21T02:04:04;10.00;86.10
56538;DHT22;42435;53.292;6.000;2024-02-21T02:06:33;10.10;86.10
56538;DHT22;42435;53.292;6.000;2024-02-21T02:09:04;10.10;86.00
56538;DHT22;42435;53.292;6.000;2024-02-21T02:11:31;10.10;86.00
56538;DHT22;42435;53.292;6.000;2024-02-21T02:13:57;10.10;86.00
56538;DHT22;42435;53.292;6.000;2024-02-21T02:16:31;10.00;86.00
56538;DHT22;42435;53.292;6.000;2024-02-21T02:19:04;10.00;86.00
56538;DHT22;42435;53.292;6.000;2024-02-21T02:21:39;10.10;86.00
56538;DHT22;42435;53.292;6.000;2024-02-21T02:24:19;10.00;86.00
56538;DHT22;42435;53.292;6.000;2024-02-21T02:26:58;10.10;86.00
56538;DHT22;42435;53.292;6.000;2024-02-21T02:29:32;10.00;86.00
56538;DHT22;42435;53.292;6.000;2024-02-21T02:32:01;10.00;85.90
56538;DHT22;42435;53.292;6.000;2024-02-21T02:34:30;10.00;85.90
56538;DHT22;42435;53.292;6.000;2024-02-21T02:37:00;10.00;85.90
56538;DHT22;42435;53.292;6.000;2024-02-21T02:39:26;10.00;85.90
56538;DHT22;42435;53.292;6.000;2024-02-21T02:41:52;10.00;85.90
56538;DHT22;42435;53.292;6.000;2024-02-21T02:44:35;10.00;85.90
56538;DHT22;42435;53.292;6.000;2024-02-21T02:47:19;10.00;85.90
56538;DHT22;42435;53.292;6.000;2024-02-21T02:49:50;10.00;85.90
56538;DHT22;42435;53.292;6.000;2024-02-21T02:52:17;10.00;85.80
56538;DHT22;42435;53.292;6.000;2024-02-21T02:54:47;10.00;85.80
56538;DHT22;42435;53.292;6.000;2024-02-21T02:57:20;10.00;85.70
56538;DHT22;42435;53.292;6.000;2024-02-21T03:00:04;10.00;85.70
56538;DHT22;42435;53.292;6.000;2024-02-21T03:02:32;10.00;85.80
56538;DHT22;42435;53.292;6.000;2024-02-21T03:05:19;10.00;85.80
56538;DHT22;42435;53.292;6.000;2024-02-21T03:07:49;9.90;85.70
56538;DHT22;42435;53.292;6.000;2024-02-21T03:10:31;10.00;85.70
56538;DHT22;42435;53.292;6.000;2024-02-21T03:12:59;9.90;85.70
56538;DHT22;42435;53.292;6.000;2024-02-21T03:15:26;10.00;85.70
56538;DHT22;42435;53.292;6.000;2024-02-21T03:18:05;9.90;85.80
56538;DHT22;42435;53.292;6.000;2024-02-21T03:20:32;9.90;85.70
56538;DHT22;42435;53.292;6.000;2024-02-21T03:23:01;9.90;85.70
56538;DHT22;42435;53.292;6.000;2024-02-21T03:25:31;9.90;85.70
56538;DHT22;42435;53.292;6.000;2024-02-21T03:28:22;9.90;85.70
56538;DHT22;42435;53.292;6.000;2024-02-21T03:30:56;9.90;85.70
56538;DHT22;42435;53.292;6.000;2024-02-21T03:33:24;9.90;85.70
56538;DHT22;42435;53.292;6.000;2024-02-21T03:35:57;9.90;85.70
56538;DHT22;42435;53.292;6.000;2024-02-21T03:38:28;9.90;85.70
56538;DHT22;42435;53.292;6.000;2024-02-21T03:41:00;9.90;85.70
56538;DHT22;42435;53.292;6.000;2024-02-21T03:43:26;9.90;85.70
56538;DHT22;42435;53.292;6.000;2024-02-21T03:45:56;10.00;85.70
56538;DHT22;42435;53.292;6.000;2024-02-21T03:48:33;10.00;85.80
56538;DHT22;42435;53.292;6.000;2024-02-21T03:51:09;10.00;85.80
56538;DHT22;42435;53.292;6.000;2024-02-21T03:53:35;10.00;85.70
56538;DHT22;42435;53.292;6.000;2024-02-21T03:56:03;10.00;85.70
56538;DHT22;42435;53.292;6.000;2024-02-21T03:58:31;10.00;85.70
56538;DHT22;42435;53.292;6.000;2024-02-21T04:01:00;10.00;85.70
56538;DHT22;42435;53.292;6.000;2024-02-21T04:03:36;10.00;85.70
56538;DHT22;42435;53.292;6.000;2024-02-21T04:06:19;10.00;85.60
56538;DHT22;42435;53.292;6.000;2024-02-21T04:08:48;10.00;85.70
56538;DHT22;42435;53.292;6.000;2024-02-21T04:11:21;10.00;85.70
56538;DHT22;42435;53.292;6.000;2024-02-21T04:13:50;10.00;85.70
56538;DHT22;42435;53.292;6.000;2024-02-21T04:16:25;10.00;85.70
56538;DHT22;42435;53.292;6.000;2024-02-21T04:18:55;10.10;85.70
56538;DHT22;42435;53.292;6.000;2024-02-21T04:21:27;10.00;85.60
56538;DHT22;42435;53.292;6.000;2024-02-21T04:24:00;10.00;85.60
56538;DHT22;42435;53.292;6.000;2024-02-21T04:26:30;10.00;85.60
56538;DHT22;42435;53.292;6.000;2024-02-21T04:29:17;10.00;85.60
56538;DHT22;42435;53.292;6.000;2024-02-21T04:31:52;10.00;85.60
56538;DHT22;42435;53.292;6.000;2024-02-21T04:34:22;10.00;85.60
56538;DHT22;42435;53.292;6.000;2024-02-21T04:36:58;10.00;85.60
56538;DHT22;42435;53.292;6.000;2024-02-21T04:39:28;10.00;85.60
56538;DHT22;42435;53.292;6.000;2024-02-21T04:42:09;10.00;85.60
56538;DHT22;42435;53.292;6.000;2024-02-21T04:44:42;10.00;85.60
56538;DHT22;42435;53.292;6.000;2024-02-21T04:47:19;10.00;85.50
56538;DHT22;42435;53.292;6.000;2024-02-21T04:49:49;10.00;85.50
56538;DHT22;42435;53.292;6.000;2024-02-21T04:52:21;10.10;85.50
56538;DHT22;42435;53.292;6.000;2024-02-21T04:54:48;10.10;85.50
56538;DHT22;42435;53.292;6.000;2024-02-21T04:57:18;10.00;85.50
56538;DHT22;42435;53.292;6.000;2024-02-21T04:59:47;10.10;85.50
56538;DHT22;42435;53.292;6.000;2024-02-21T05:02:20;10.10;85.50
56538;DHT22;42435;53.292;6.000;2024-02-21T05:04:48;10.10;85.50
56538;DHT22;42435;53.292;6.000;2024-02-21T05:07:20;10.10;85.50
56538;DHT22;42435;53.292;6.000;2024-02-21T05:09:55;10.10;85.40
56538;DHT22;42435;53.292;6.000;2024-02-21T05:12:31;10.20;85.30
56538;DHT22;42435;53.292;6.000;2024-02-21T05:14:57;10.10;85.30
56538;DHT22;42435;53.292;6.000;2024-02-21T05:17:32;10.20;85.30
56538;DHT22;42435;53.292;6.000;2024-02-21T05:20:03;10.10;85.30
56538;DHT22;42435;53.292;6.000;2024-02-21T05:22:31;10.10;85.20
56538;DHT22;42435;53.292;6.000;2024-02-21T05:24:58;10.10;85.20
56538;DHT22;42435;53.292;6.000;2024-02-21T05:27:26;10.10;85.20
56538;DHT22;42435;53.292;6.000;2024-02-21T05:30:10;10.10;85.20
56538;DHT22;42435;53.292;6.000;2024-02-21T05:32:36;10.10;85.30
56538;DHT22;42435;53.292;6.000;2024-02-21T05:35:05;10.10;85.20
56538;DHT22;42435;53.292;6.000;2024-02-21T05:37:35;10.10;85.20
56538;DHT22;42435;53.292;6.000;2024-02-21T05:40:10;10.10;85.20
56538;DHT22;42435;53.292;6.000;2024-02-21T05:42:39;10.10;85.20
56538;DHT22;42435;53.292;6.000;2024-02-21T05:45:05;10.10;85.10
56538;DHT22;42435;53.292;6.000;2024-02-21T05:47:34;10.10;85.10
56538;DHT22;42435;53.292;6.000;2024-02-21T05:50:07;10.10;85.20
56538;DHT22;42435;53.292;6.000;2024-02-21T05:52:44;10.10;85.30
56538;DHT22;42435;53.292;6.000;2024-02-21T05:55:13;10.10;85.20
56538;DHT22;42435;53.292;6.000;2024-02-21T05:57:46;10.10;85.20
56538;DHT22;42435;53.292;6.000;2024-02-21T06:00:14;10.00;85.20
56538;DHT22;42435;53.292;6.000;2024-02-21T06:02:41;10.10;85.30
56538;DHT22;42435;53.292;6.000;2024-02-21T06:05:17;10.10;85.30
56538;DHT22;42435;53.292;6.000;2024-02-21T06:07:44;10.10;85.30
56538;DHT22;42435;53.292;6.000;2024-02-21T06:10:11;10.10;85.30
56538;DHT22;42435;53.292;6.000;2024-02-21T06:12:45;10.10;85.30
56538;DHT22;42435;53.292;6.000;2024-02-21T06:15:13;10.10;85.30
56538;DHT22;42435;53.292;6.000;2024-02-21T06:17:44;10.00;85.30
56538;DHT22;42435;53.292;6.000;2024-02-21T06:20:11;10.10;85.30
56538;DHT22;42435;53.292;6.000;2024-02-21T06:22:39;10.00;85.30
56538;DHT22;42435;53.292;6.000;2024-02-21T06:25:11;10.10;85.30
56538;DHT22;42435;53.292;6.000;2024-02-21T06:27:39;10.10;85.30
56538;DHT22;42435;53.292;6.000;2024-02-21T06:30:13;10.00;85.30
56538;DHT22;42435;53.292;6.000;2024-02-21T06:32:42;10.10;85.30
56538;DHT22;42435;53.292;6.000;2024-02-21T06:35:20;10.00;85.30
56538;DHT22;42435;53.292;6.000;2024-02-21T06:37:47;10.00;85.40
56538;DHT22;42435;53.292;6.000;2024-02-21T06:40:20;10.10;85.30
56538;DHT22;42435;53.292;6.000;2024-02-21T06:43:11;10.10;85.30
56538;DHT22;42435;53.292;6.000;2024-02-21T06:45:42;10.00;85.40
56538;DHT22;42435;53.292;6.000;2024-02-21T06:48:19;10.10;85.40
56538;DHT22;42435;53.292;6.000;2024-02-21T06:50:50;10.00;85.40
56538;DHT22;42435;53.292;6.000;2024-02-21T06:53:22;10.00;85.40
56538;DHT22;42435;53.292;6.000;2024-02-21T06:56:31;10.10;85.40
56538;DHT22;42435;53.292;6.000;2024-02-21T06:59:11;10.10;85.40
56538;DHT22;42435;53.292;6.000;2024-02-21T07:01:49;10.00;85.50
56538;DHT22;42435;53.292;6.000;2024-02-21T07:04:31;10.10;85.50
56538;DHT22;42435;53.292;6.000;2024-02-21T07:07:05;10.10;85.40
56538;DHT22;42435;53.292;6.000;2024-02-21T07:09:41;10.10;85.40
56538;DHT22;42435;53.292;6.000;2024-02-21T07:12:27;10.10;85.40
56538;DHT22;42435;53.292;6.000;2024-02-21T07:15:12;10.00;85.40
56538;DHT22;42435;53.292;6.000;2024-02-21T07:17:52;10.00;85.50
56538;DHT22;42435;53.292;6.000;2024-02-21T07:20:25;10.10;85.50
56538;DHT22;42435;53.292;6.000;2024-02-21T07:22:57;10.00;85.50
56538;DHT22;42435;53.292;6.000;2024-02-21T07:25:27;10.10;85.50
56538;DHT22;42435;53.292;6.000;2024-02-21T07:28:02;10.10;85.50
56538;DHT22;42435;53.292;6.000;2024-02-21T07:30:29;10.00;85.50
56538;DHT22;42435;53.292;6.000;2024-02-21T07:33:01;10.10;85.60
56538;DHT22;42435;53.292;6.000;2024-02-21T07:35:35;10.10;85.60
56538;DHT22;42435;53.292;6.000;2024-02-21T07:38:07;10.00;85.70
56538;DHT22;42435;53.292;6.000;2024-02-21T07:40:40;10.10;85.70
56538;DHT22;42435;53.292;6.000;2024-02-21T07:43:19;10.10;85.70
56538;DHT22;42435;53.292;6.000;2024-02-21T07:46:01;10.10;85.80
56538;DHT22;42435;53.292;6.000;2024-02-21T07:48:42;10.10;85.80
56538;DHT22;42435;53.292;6.000;2024-02-21T07:51:14;10.10;85.90
56538;DHT22;42435;53.292;6.000;2024-02-21T07:53:44;10.10;85.90
56538;DHT22;42435;53.292;6.000;2024-02-21T07:56:23;10.10;85.80
56538;DHT22;42435;53.292;6.000;2024-02-21T07:58:50;10.10;85.90
56538;DHT22;42435;53.292;6.000;2024-02-21T08:01:37;10.10;85.90
56538;DHT22;42435;53.292;6.000;2024-02-21T08:04:12;10.00;85.90
56538;DHT22;42435;53.292;6.000;2024-02-21T08:07:02;10.10;86.00
56538;DHT22;42435;53.292;6.000;2024-02-21T08:09:32;10.10;86.00
56538;DHT22;42435;53.292;6.000;2024-02-21T08:12:01;10.10;86.10
56538;DHT22;42435;53.292;6.000;2024-02-21T08:14:31;10.10;86.20
56538;DHT22;42435;53.292;6.000;2024-02-21T08:17:08;10.20;86.20
56538;DHT22;42435;53.292;6.000;2024-02-21T08:19:35;10.10;86.30
56538;DHT22;42435;53.292;6.000;2024-02-21T08:22:10;10.20;86.30
56538;DHT22;42435;53.292;6.000;2024-02-21T08:25:06;10.20;86.30
56538;DHT22;42435;53.292;6.000;2024-02-21T08:27:39;10.20;86.30
56538;DHT22;42435;53.292;6.000;2024-02-21T08:30:22;10.10;86.20
56538;DHT22;42435;53.292;6.000;2024-02-21T08:32:49;10.20;86.30
56538;DHT22;42435;53.292;6.000;2024-02-21T08:35:24;10.20;86.30
56538;DHT22;42435;53.292;6.000;2024-02-21T08:37:54;10.20;86.20
56538;DHT22;42435;53.292;6.000;2024-02-21T08:40:45;10.20;86.10
56538;DHT22;42435;53.292;6.000;2024-02-21T08:43:42;10.20;86.00
56538;DHT22;42435;53.292;6.000;2024-02-21T08:46:30;10.10;86.10
56538;DHT22;42435;53.292;6.000;2024-02-21T08:49:10;10.10;86.10
56538;DHT22;42435;53.292;6.000;2024-02-21T08:51:39;10.10;86.20
56538;DHT22;42435;53.292;6.000;2024-02-21T08:54:06;10.10;86.20
56538;DHT22;42435;53.292;6.000;2024-02-21T08:56:36;10.10;86.20
56538;DHT22;42435;53.292;6.000;2024-02-21T08:59:13;10.20;86.10
56538;DHT22;42435;53.292;6.000;2024-02-21T09:01:44;10.20;86.20
56538;DHT22;42435;53.292;6.000;2024-02-21T09:04:39;10.20;86.20
56538;DHT22;42435;53.292;6.000;2024-02-21T09:07:26;10.20;86.00
56538;DHT22;42435;53.292;6.000;2024-02-21T09:09:57;10.20;86.10
56538;DHT22;42435;53.292;6.000;2024-02-21T09:12:37;10.20;86.00
56538;DHT22;42435;53.292;6.000;2024-02-21T09:15:10;10.20;86.00
56538;DHT22;42435;53.292;6.000;2024-02-21T09:18:01;10.20;86.00
56538;DHT22;42435;53.292;6.000;2024-02-21T09:20:29;10.20;85.90
56538;DHT22;42435;53.292;6.000;2024-02-21T09:23:24;10.20;85.90
56538;DHT22;42435;53.292;6.000;2024-02-21T09:26:18;10.20;85.80
56538;DHT22;42435;53.292;6.000;2024-02-21T09:28:50;10.20;85.70
56538;DHT22;42435;53.292;6.000;2024-02-21T09:31:28;10.30;85.60
56538;DHT22;42435;53.292;6.000;2024-02-21T09:34:04;10.30;85.60
56538;DHT22;42435;53.292;6.000;2024-02-21T09:36:31;10.30;85.50
56538;DHT22;42435;53.292;6.000;2024-02-21T09:39:23;10.30;85.50
56538;DHT22;42435;53.292;6.000;2024-02-21T09:42:03;10.30;85.40
56538;DHT22;42435;53.292;6.000;2024-02-21T09:44:37;10.30;85.20
56538;DHT22;42435;53.292;6.000;2024-02-21T09:50:37;10.40;85.10
56538;DHT22;42435;53.292;6.000;2024-02-21T09:53:04;10.40;85.10
56538;DHT22;42435;53.292;6.000;2024-02-21T09:55:36;10.40;85.00
56538;DHT22;42435;53.292;6.000;2024-02-21T09:58:39;10.40;84.90
56538;DHT22;42435;53.292;6.000;2024-02-21T10:01:13;10.40;84.70
56538;DHT22;42435;53.292;6.000;2024-02-21T10:03:43;10.50;84.70
56538;DHT22;42435;53.292;6.000;2024-02-21T10:06:12;10.50;84.50
56538;DHT22;42435;53.292;6.000;2024-02-21T10:08:57;10.50;84.50
56538;DHT22;42435;53.292;6.000;2024-02-21T10:11:40;10.60;84.40
56538;DHT22;42435;53.292;6.000;2024-02-21T10:14:15;10.60;84.20
56538;DHT22;42435;53.292;6.000;2024-02-21T10:16:56;10.60;84.10
56538;DHT22;42435;53.292;6.000;2024-02-21T10:19:36;10.70;84.00
56538;DHT22;42435;53.292;6.000;2024-02-21T10:22:33;10.60;83.80
56538;DHT22;42435;53.292;6.000;2024-02-21T10:25:29;10.70;83.60
56538;DHT22;42435;53.292;6.000;2024-02-21T10:28:22;10.70;83.60
56538;DHT22;42435;53.292;6.000;2024-02-21T10:31:27;10.70;83.50
56538;DHT22;42435;53.292;6.000;2024-02-21T10:34:39;10.70;83.40
56538;DHT22;42435;53.292;6.000;2024-02-21T10:37:25;10.70;83.30
56538;DHT22;42435;53.292;6.000;2024-02-21T10:39:54;10.70;83.30
56538;DHT22;42435;53.292;6.000;2024-02-21T10:42:29;10.80;83.40
56538;DHT22;42435;53.292;6.000;2024-02-21T10:45:35;10.80;83.10
56538;DHT22;42435;53.292;6.000;2024-02-21T10:48:29;10.90;83.00
56538;DHT22;42435;53.292;6.000;2024-02-21T10:51:20;10.90;83.00
56538;DHT22;42435;53.292;6.000;2024-02-21T10:57:14;10.90;82.40
56538;DHT22;42435;53.292;6.000;2024-02-21T10:59:55;10.90;82.40
56538;DHT22;42435;53.292;6.000;2024-02-21T11:02:28;10.90;82.30
56538;DHT22;42435;53.292;6.000;2024-02-21T11:05:12;10.90;82.20
56538;DHT22;42435;53.292;6.000;2024-02-21T11:08:08;10.90;82.00
56538;DHT22;42435;53.292;6.000;2024-02-21T11:10:45;10.90;81.80
56538;DHT22;42435;53.292;6.000;2024-02-21T11:13:30;10.90;81.90
56538;DHT22;42435;53.292;6.000;2024-02-21T11:16:10;11.00;81.70
56538;DHT22;42435;53.292;6.000;2024-02-21T11:18:40;11.00;81.60
56538;DHT22;42435;53.292;6.000;2024-02-21T11:21:09;11.00;81.30
56538;DHT22;42435;53.292;6.000;2024-02-21T11:23:55;11.00;81.20
56538;DHT22;42435;53.292;6.000;2024-02-21T11:26:38;11.00;81.20
56538;DHT22;42435;53.292;6.000;2024-02-21T11:29:08;11.00;81.20
56538;DHT22;42435;53.292;6.000;2024-02-21T11:31:49;10.90;81.30
56538;DHT22;42435;53.292;6.000;2024-02-21T11:34:25;10.90;81.30
56538;DHT22;42435;53.292;6.000;2024-02-21T11:37:35;11.00;81.20
56538;DHT22;42435;53.292;6.000;2024-02-21T11:40:07;11.00;81.20
56538;DHT22;42435;53.292;6.000;2024-02-21T11:42:48;11.00;81.20
56538;DHT22;42435;53.292;6.000;2024-02-21T11:45:17;11.00;81.20
56538;DHT22;42435;53.292;6.000;2024-02-21T11:48:02;11.00;81.20
56538;DHT22;42435;53.292;6.000;2024-02-21T11:50:54;11.00;81.20
56538;DHT22;42435;53.292;6.000;2024-02-21T11:53:26;11.00;81.00
56538;DHT22;42435;53.292;6.000;2024-02-21T11:56:06;11.00;81.00
56538;DHT22;42435;53.292;6.000;2024-02-21T11:58:41;11.00;80.90
56538;DHT22;42435;53.292;6.000;2024-02-21T12:01:18;11.00;81.00
56538;DHT22;42435;53.292;6.000;2024-02-21T12:03:54;11.00;80.90
56538;DHT22;42435;53.292;6.000;2024-02-21T12:10:45;11.00;80.90
56538;DHT22;42435;53.292;6.000;2024-02-21T12:13:32;10.90;80.90
56538;DHT22;42435;53.292;6.000;2024-02-21T12:15:58;10.90;80.90
56538;DHT22;42435;53.292;6.000;2024-02-21T12:18:36;11.00;80.90
56538;DHT22;42435;53.292;6.000;2024-02-21T12:21:06;11.00;80.90
56538;DHT22;42435;53.292;6.000;2024-02-21T12:23:41;11.00;80.70
56538;DHT22;42435;53.292;6.000;2024-02-21T12:26:09;11.00;80.60
56538;DHT22;42435;53.292;6.000;2024-02-21T12:28:41;11.00;80.60
56538;DHT22;42435;53.292;6.000;2024-02-21T12:31:21;11.00;80.50
56538;DHT22;42435;53.292;6.000;2024-02-21T12:34:03;11.00;80.50
56538;DHT22;42435;53.292;6.000;2024-02-21T12:36:51;11.00;80.30
56538;DHT22;42435;53.292;6.000;2024-02-21T12:39:21;11.00;80.30
56538;DHT22;42435;53.292;6.000;2024-02-21T12:42:11;11.00;80.40
56538;DHT22;42435;53.292;6.000;2024-02-21T12:44:45;11.00;80.20
56538;DHT22;42435;53.292;6.000;2024-02-21T12:47:56;11.00;80.20
56538;DHT22;42435;53.292;6.000;2024-02-21T12:50:34;11.00;80.10
56538;DHT22;42435;53.292;6.000;2024-02-21T12:53:05;11.00;80.10
56538;DHT22;42435;53.292;6.000;2024-02-21T12:56:06;11.10;80.20
56538;DHT22;42435;53.292;6.000;2024-02-21T12:59:00;11.10;80.00
56538;DHT22;42435;53.292;6.000;2024-02-21T13:01:45;11.10;79.90
56538;DHT22;42435;53.292;6.000;2024-02-21T13:04:13;11.10;79.90
56538;DHT22;42435;53.292;6.000;2024-02-21T13:06:39;11.10;79.80
56538;DHT22;42435;53.292;6.000;2024-02-21T13:09:10;11.10;79.80
56538;DHT22;42435;53.292;6.000;2024-02-21T13:11:44;11.10;79.70
56538;DHT22;42435;53.292;6.000;2024-02-21T13:14:15;11.10;79.80
56538;DHT22;42435;53.292;6.000;2024-02-21T13:16:47;11.10;79.70
56538;DHT22;42435;53.292;6.000;2024-02-21T13:19:26;11.20;79.70
56538;DHT22;42435;53.292;6.000;2024-02-21T13:22:24;11.20;79.60
56538;DHT22;42435;53.292;6.000;2024-02-21T13:25:09;11.20;79.30
56538;DHT22;42435;53.292;6.000;2024-02-21T13:27:51;11.20;79.10
56538;DHT22;42435;53.292;6.000;2024-02-21T13:30:29;11.20;78.80
56538;DHT22;42435;53.292;6.000;2024-02-21T13:33:07;11.20;78.80
56538;DHT22;42435;53.292;6.000;2024-02-21T13:35:46;11.20;78.60
56538;DHT22;42435;53.292;6.000;2024-02-21T13:39:00;11.20;78.40
56538;DHT22;42435;53.292;6.000;2024-02-21T13:42:28;11.20;78.30
56538;DHT22;42435;53.292;6.000;2024-02-21T13:45:26;11.20;78.40
56538;DHT22;42435;53.292;6.000;2024-02-21T13:48:02;11.20;78.40
56538;DHT22;42435;53.292;6.000;2024-02-21T13:51:11;11.10;78.40
56538;DHT22;42435;53.292;6.000;2024-02-21T13:53:54;11.10;78.30
56538;DHT22;42435;53.292;6.000;2024-02-21T13:56:35;11.10;78.40
56538;DHT22;42435;53.292;6.000;2024-02-21T13:59:36;11.10;78.40
56538;DHT22;42435;53.292;6.000;2024-02-21T14:02:05;11.00;78.40
56538;DHT22;42435;53.292;6.000;2024-02-21T14:04:49;11.10;78.40
56538;DHT22;42435;53.292;6.000;2024-02-21T14:07:36;11.00;78.30
56538;DHT22;42435;53.292;6.000;2024-02-21T14:10:21;11.00;78.30
56538;DHT22;42435;53.292;6.000;2024-02-21T14:13:02;11.00;78.30
56538;DHT22;42435;53.292;6.000;2024-02-21T14:15:34;11.00;78.30
56538;DHT22;42435;53.292;6.000;2024-02-21T14:18:04;10.90;78.20
56538;DHT22;42435;53.292;6.000;2024-02-21T14:20:37;10.90;78.20
56538;DHT22;42435;53.292;6.000;2024-02-21T14:23:05;10.90;78.30
56538;DHT22;42435;53.292;6.000;2024-02-21T14:25:54;10.90;78.20
56538;DHT22;42435;53.292;6.000;2024-02-21T14:28:42;10.80;78.30
56538;DHT22;42435;53.292;6.000;2024-02-21T14:31:17;10.80;78.40
56538;DHT22;42435;53.292;6.000;2024-02-21T14:33:55;10.80;78.30
56538;DHT22;42435;53.292;6.000;2024-02-21T14:36:30;10.80;78.30
56538;DHT22;42435;53.292;6.000;2024-02-21T14:39:02;10.80;78.20
56538;DHT22;42435;53.292;6.000;2024-02-21T14:41:55;10.70;78.20
56538;DHT22;42435;53.292;6.000;2024-02-21T14:44:30;10.70;78.30
56538;DHT22;42435;53.292;6.000;2024-02-21T14:47:09;10.70;78.40
56538;DHT22;42435;53.292;6.000;2024-02-21T14:49:50;10.70;78.40
56538;DHT22;42435;53.292;6.000;2024-02-21T14:52:40;10.70;78.40
56538;DHT22;42435;53.292;6.000;2024-02-21T14:55:08;10.70;78.40
56538;DHT22;42435;53.292;6.000;2024-02-21T14:57:40;10.70;78.50
56538;DHT22;42435;53.292;6.000;2024-02-21T15:00:19;10.70;78.50
56538;DHT22;42435;53.292;6.000;2024-02-21T15:03:03;10.70;78.40
56538;DHT22;42435;53.292;6.000;2024-02-21T15:05:38;10.70;78.50
56538;DHT22;42435;53.292;6.000;2024-02-21T15:08:28;10.70;78.50
56538;DHT22;42435;53.292;6.000;2024-02-21T15:10:58;10.60;78.40
56538;DHT22;42435;53.292;6.000;2024-02-21T15:13:36;10.60;78.40
56538;DHT22;42435;53.292;6.000;2024-02-21T15:16:09;10.60;78.50
56538;DHT22;42435;53.292;6.000;2024-02-21T15:18:41;10.60;78.50
56538;DHT22;42435;53.292;6.000;2024-02-21T15:21:10;10.60;78.40
56538;DHT22;42435;53.292;6.000;2024-02-21T15:23:44;10.60;78.50
56538;DHT22;42435;53.292;6.000;2024-02-21T15:26:19;10.60;78.50
56538;DHT22;42435;53.292;6.000;2024-02-21T15:28:56;10.60;78.70
56538;DHT22;42435;53.292;6.000;2024-02-21T15:31:32;10.60;78.80
56538;DHT22;42435;53.292;6.000;2024-02-21T15:33:59;10.60;78.80
56538;DHT22;42435;53.292;6.000;2024-02-21T15:36:30;10.60;79.00
56538;DHT22;42435;53.292;6.000;2024-02-21T15:38:56;10.60;79.10
56538;DHT22;42435;53.292;6.000;2024-02-21T15:41:33;10.60;79.20
56538;DHT22;42435;53.292;6.000;2024-02-21T15:44:01;10.50;79.40
56538;DHT22;42435;53.292;6.000;2024-02-21T15:46:28;10.50;79.50
56538;DHT22;42435;53.292;6.000;2024-02-21T15:48:57;10.50;79.70
56538;DHT22;42435;53.292;6.000;2024-02-21T15:51:42;10.50;79.80
56538;DHT22;42435;53.292;6.000;2024-02-21T15:54:18;10.50;79.90
56538;DHT22;42435;53.292;6.000;2024-02-21T15:56:47;10.40;80.10
56538;DHT22;42435;53.292;6.000;2024-02-21T15:59:22;10.40;80.10
56538;DHT22;42435;53.292;6.000;2024-02-21T16:02:09;10.40;80.30
56538;DHT22;42435;53.292;6.000;2024-02-21T16:04:40;10.30;80.30
56538;DHT22;42435;53.292;6.000;2024-02-21T16:07:42;10.30;80.50
56538;DHT22;42435;53.292;6.000;2024-02-21T16:10:10;10.30;80.70
56538;DHT22;42435;53.292;6.000;2024-02-21T16:12:40;10.20;80.80
56538;DHT22;42435;53.292;6.000;2024-02-21T16:15:18;10.20;80.90
56538;DHT22;42435;53.292;6.000;2024-02-21T16:17:53;10.20;81.10
56538;DHT22;42435;53.292;6.000;2024-02-21T16:20:19;10.10;81.10
56538;DHT22;42435;53.292;6.000;2024-02-21T16:22:48;10.10;81.30
56538;DHT22;42435;53.292;6.000;2024-02-21T16:25:25;10.20;81.40
56538;DHT22;42435;53.292;6.000;2024-02-21T16:27:51;10.10;81.60
56538;DHT22;42435;53.292;6.000;2024-02-21T16:30:28;10.10;81.60
56538;DHT22;42435;53.292;6.000;2024-02-21T16:32:58;10.10;81.70
56538;DHT22;42435;53.292;6.000;2024-02-21T16:35:28;10.00;81.80
56538;DHT22;42435;53.292;6.000;2024-02-21T16:38:02;10.00;82.00
56538;DHT22;42435;53.292;6.000;2024-02-21T16:40:38;10.00;82.20
56538;DHT22;42435;53.292;6.000;2024-02-21T16:43:11;10.00;82.30